createdAt,value
2022-08-28T00:00:44.328Z,51.72
2022-08-28T00:01:44.329Z,52.65
2022-08-28T00:02:44.360Z,51.87
2022-08-28T00:03:44.314Z,53.13
2022-08-28T00:04:44.332Z,52.32
2022-08-28T00:05:44.278Z,53.60
2022-08-28T00:06:44.277Z,52.47
2022-08-28T00:07:47.607Z,52.09
2022-08-28T00:08:44.283Z,52.46
2022-08-28T00:09:44.257Z,51.89
2022-08-28T00:10:44.257Z,53.08
2022-08-28T00:11:44.239Z,53.38
2022-08-28T00:12:44.236Z,53.77
2022-08-28T00:13:44.241Z,55.83
2022-08-28T00:14:44.219Z,52.51
2022-08-28T00:15:44.254Z,53.41
2022-08-28T00:16:44.194Z,53.46
2022-08-28T00:17:44.192Z,51.52
2022-08-28T00:18:44.180Z,52.93
2022-08-28T00:19:44.200Z,52.53
2022-08-28T00:20:44.163Z,53.81
2022-08-28T00:21:44.154Z,53.02
2022-08-28T00:22:44.147Z,53.88
2022-08-28T00:23:44.140Z,52.73
2022-08-28T00:24:44.131Z,51.96
2022-08-28T00:25:44.149Z,53.52
2022-08-28T00:26:44.116Z,54.02
2022-08-28T00:27:44.104Z,52.74
2022-08-28T00:28:44.096Z,52.77
2022-08-28T00:29:44.102Z,51.74
2022-08-28T00:30:44.122Z,52.38
2022-08-28T00:31:44.152Z,51.34
2022-08-28T00:32:44.063Z,51.37
2022-08-28T00:33:44.069Z,51.65
2022-08-28T00:34:44.050Z,52.50
2022-08-28T00:35:44.049Z,52.39
2022-08-28T00:36:44.054Z,51.31
2022-08-28T00:37:44.022Z,52.29
2022-08-28T00:38:44.033Z,52.88
2022-08-28T00:39:44.026Z,51.89
2022-08-28T00:40:44.192Z,51.27
2022-08-28T00:41:43.991Z,53.64
2022-08-28T00:42:43.989Z,54.10
2022-08-28T00:43:43.980Z,52.90
2022-08-28T00:44:43.987Z,52.37
2022-08-28T00:45:43.961Z,50.11
2022-08-28T00:46:44.012Z,51.77
2022-08-28T00:47:43.938Z,52.08
2022-08-28T00:48:43.958Z,53.86
2022-08-28T00:49:43.925Z,53.53
2022-08-28T00:50:43.962Z,52.00
2022-08-28T00:51:43.919Z,53.66
2022-08-28T00:52:43.903Z,51.90
2022-08-28T00:53:43.899Z,51.79
2022-08-28T00:54:53.508Z,50.88
2022-08-28T00:55:44.901Z,51.78
2022-08-28T00:56:43.874Z,52.64
2022-08-28T00:57:43.864Z,50.35
2022-08-28T00:58:43.867Z,51.75
2022-08-28T00:59:43.846Z,51.39
2022-08-28T01:00:43.837Z,50.84
2022-08-28T01:01:43.888Z,50.94
2022-08-28T01:02:43.897Z,50.32
2022-08-28T01:03:43.835Z,52.38
2022-08-28T01:04:43.814Z,54.14
2022-08-28T01:05:43.809Z,52.37
2022-08-28T01:06:43.796Z,51.95
2022-08-28T01:07:43.802Z,52.45
2022-08-28T01:08:43.798Z,51.93
2022-08-28T01:09:44.789Z,51.75
2022-08-28T01:10:43.755Z,51.61
2022-08-28T01:11:43.764Z,51.68
2022-08-28T01:12:43.742Z,52.48
2022-08-28T01:13:43.725Z,51.25
2022-08-28T01:14:43.719Z,52.86
2022-08-28T01:15:43.776Z,52.11
2022-08-28T01:16:43.703Z,51.56
2022-08-28T01:17:43.722Z,49.97
2022-08-28T01:18:43.689Z,52.10
2022-08-28T01:19:43.677Z,51.24
2022-08-28T01:20:43.677Z,49.92
2022-08-28T01:21:43.683Z,54.37
2022-08-28T01:22:43.655Z,52.72
2022-08-28T01:23:43.644Z,53.30
2022-08-28T01:24:43.639Z,50.56
2022-08-28T01:25:43.626Z,50.43
2022-08-28T01:26:43.645Z,49.95
2022-08-28T01:27:43.610Z,51.53
2022-08-28T01:28:43.623Z,51.71
2022-08-28T01:29:45.199Z,50.81
2022-08-28T01:30:43.633Z,51.40
2022-08-28T01:31:43.578Z,51.18
2022-08-28T01:32:43.569Z,51.37
2022-08-28T01:33:43.575Z,51.53
2022-08-28T01:34:43.556Z,51.87
2022-08-28T01:35:43.542Z,50.26
2022-08-28T01:36:43.539Z,51.16
2022-08-28T01:37:50.532Z,52.59
2022-08-28T01:38:43.537Z,51.32
2022-08-28T01:39:43.505Z,50.79
2022-08-28T01:40:43.534Z,50.06
2022-08-28T01:41:43.495Z,49.87
2022-08-28T01:42:43.485Z,50.28
2022-08-28T01:43:43.501Z,51.16
2022-08-28T01:44:43.470Z,51.38
2022-08-28T01:45:43.458Z,52.42
2022-08-28T01:46:43.529Z,51.27
2022-08-28T01:47:43.454Z,52.51
2022-08-28T01:48:43.466Z,53.53
2022-08-28T01:49:43.431Z,51.63
2022-08-28T01:50:43.419Z,50.91
2022-08-28T01:51:43.412Z,51.47
2022-08-28T01:52:43.424Z,52.29
2022-08-28T01:53:45.348Z,49.19
2022-08-28T01:54:43.391Z,50.68
2022-08-28T01:55:43.384Z,51.13
2022-08-28T01:56:43.375Z,51.97
2022-08-28T01:57:43.373Z,51.79
2022-08-28T01:58:43.415Z,51.83
2022-08-28T01:59:43.353Z,53.99
2022-08-28T02:00:43.342Z,53.20
2022-08-28T02:01:43.387Z,53.51
2022-08-28T02:02:43.336Z,51.12
2022-08-28T02:03:43.441Z,51.53
2022-08-28T02:04:46.265Z,51.42
2022-08-28T02:05:43.307Z,51.22
2022-08-28T02:06:43.307Z,50.76
2022-08-28T02:07:43.296Z,50.69
2022-08-28T02:08:43.309Z,51.98
2022-08-28T02:09:43.271Z,52.64
2022-08-28T02:10:43.299Z,50.68
2022-08-28T02:11:46.479Z,50.55
2022-08-28T02:12:43.255Z,52.17
2022-08-28T02:13:43.246Z,50.41
2022-08-28T02:14:43.253Z,50.10
2022-08-28T02:15:43.354Z,50.73
2022-08-28T02:16:43.221Z,50.84
2022-08-28T02:17:43.213Z,52.22
2022-08-28T02:18:43.214Z,51.17
2022-08-28T02:19:43.220Z,51.14
2022-08-28T02:20:43.189Z,49.92
2022-08-28T02:21:43.170Z,51.65
2022-08-28T02:22:43.167Z,52.26
2022-08-28T02:23:43.163Z,50.67
2022-08-28T02:24:43.154Z,50.72
2022-08-28T02:25:43.164Z,49.16
2022-08-28T02:26:43.138Z,49.52
2022-08-28T02:27:43.129Z,50.32
2022-08-28T02:28:43.138Z,51.67
2022-08-28T02:29:43.100Z,52.30
2022-08-28T02:30:43.143Z,50.30
2022-08-28T02:31:43.097Z,52.12
2022-08-28T02:32:43.094Z,50.82
2022-08-28T02:33:43.071Z,52.46
2022-08-28T02:34:43.074Z,50.19
2022-08-28T02:35:43.056Z,52.47
2022-08-28T02:36:43.078Z,50.34
2022-08-28T02:37:43.050Z,51.42
2022-08-28T02:38:43.037Z,50.94
2022-08-28T02:39:43.021Z,51.73
2022-08-28T02:40:43.021Z,53.17
2022-08-28T02:41:43.009Z,52.86
2022-08-28T02:42:43.025Z,51.68
2022-08-28T02:43:43.020Z,51.86
2022-08-28T02:44:42.985Z,51.14
2022-08-28T02:45:42.991Z,50.60
2022-08-28T02:46:42.967Z,52.22
2022-08-28T02:47:42.984Z,51.90
2022-08-28T02:48:42.949Z,50.70
2022-08-28T02:49:42.941Z,50.32
2022-08-28T02:50:42.944Z,49.88
2022-08-28T02:51:42.918Z,50.61
2022-08-28T02:52:42.919Z,52.80
2022-08-28T02:53:42.928Z,49.51
2022-08-28T02:54:42.903Z,49.72
2022-08-28T02:55:42.897Z,49.28
2022-08-28T02:56:42.893Z,50.78
2022-08-28T02:57:42.880Z,50.74
2022-08-28T02:58:42.893Z,50.38
2022-08-28T02:59:42.894Z,50.69
2022-08-28T03:00:42.855Z,52.45
2022-08-28T03:01:42.913Z,50.92
2022-08-28T03:02:42.877Z,50.48
2022-08-28T03:03:42.843Z,49.63
2022-08-28T03:04:42.824Z,50.34
2022-08-28T03:05:42.834Z,51.36
2022-08-28T03:06:42.821Z,50.82
2022-08-28T03:07:42.817Z,50.94
2022-08-28T03:08:42.794Z,50.19
2022-08-28T03:09:42.777Z,51.15
2022-08-28T03:10:42.801Z,51.42
2022-08-28T03:11:42.756Z,51.27
2022-08-28T03:12:42.762Z,53.99
2022-08-28T03:13:42.744Z,51.21
2022-08-28T03:14:42.740Z,51.89
2022-08-28T03:15:42.724Z,51.36
2022-08-28T03:16:42.802Z,51.23
2022-08-28T03:17:42.741Z,50.41
2022-08-28T03:18:42.724Z,51.50
2022-08-28T03:19:42.702Z,53.52
2022-08-28T03:20:42.701Z,51.94
2022-08-28T03:21:42.683Z,49.74
2022-08-28T03:22:42.670Z,51.30
2022-08-28T03:23:42.688Z,49.78
2022-08-28T03:24:42.657Z,51.96
2022-08-28T03:25:42.649Z,50.63
2022-08-28T03:26:42.647Z,52.33
2022-08-28T03:27:42.657Z,51.41
2022-08-28T03:28:42.633Z,52.17
2022-08-28T03:29:42.617Z,53.46
2022-08-28T03:30:42.668Z,50.20
2022-08-28T03:31:42.606Z,51.32
2022-08-28T03:32:42.632Z,51.23
2022-08-28T03:33:43.018Z,50.50
2022-08-28T03:34:42.592Z,50.88
2022-08-28T03:35:42.582Z,53.47
2022-08-28T03:36:42.556Z,52.08
2022-08-28T03:37:42.552Z,52.54
2022-08-28T03:38:42.545Z,52.65
2022-08-28T03:39:42.568Z,52.58
2022-08-28T03:40:42.555Z,52.62
2022-08-28T03:41:42.518Z,52.14
2022-08-28T03:42:42.529Z,50.75
2022-08-28T03:43:42.554Z,49.47
2022-08-28T03:44:42.492Z,54.31
2022-08-28T03:45:42.555Z,52.89
2022-08-28T03:46:42.491Z,53.66
2022-08-28T03:47:42.479Z,52.13
2022-08-28T03:48:43.507Z,53.21
2022-08-28T03:49:42.490Z,52.48
2022-08-28T03:50:42.456Z,52.37
2022-08-28T03:51:42.445Z,50.38
2022-08-28T03:52:42.440Z,52.72
2022-08-28T03:53:42.448Z,51.15
2022-08-28T03:54:42.428Z,52.04
2022-08-28T03:55:42.412Z,51.12
2022-08-28T03:56:42.425Z,51.33
2022-08-28T03:57:42.392Z,52.10
2022-08-28T03:58:42.408Z,51.96
2022-08-28T03:59:42.382Z,51.18
2022-08-28T04:00:42.367Z,51.98
2022-08-28T04:01:42.435Z,52.64
2022-08-28T04:02:42.354Z,52.27
2022-08-28T04:03:42.430Z,50.91
2022-08-28T04:04:42.340Z,51.70
2022-08-28T04:05:42.351Z,51.00
2022-08-28T04:06:42.319Z,51.10
2022-08-28T04:07:42.310Z,50.93
2022-08-28T04:08:42.313Z,54.00
2022-08-28T04:09:42.324Z,52.79
2022-08-28T04:10:42.289Z,52.56
2022-08-28T04:11:42.278Z,50.94
2022-08-28T04:12:42.265Z,52.25
2022-08-28T04:13:42.283Z,55.09
2022-08-28T04:14:42.261Z,53.92
2022-08-28T04:15:42.258Z,53.47
2022-08-28T04:16:42.283Z,52.46
2022-08-28T04:17:42.227Z,54.19
2022-08-28T04:18:42.229Z,52.38
2022-08-28T04:19:42.234Z,52.32
2022-08-28T04:20:42.200Z,51.93
2022-08-28T04:21:42.189Z,53.59
2022-08-28T04:22:42.204Z,51.75
2022-08-28T04:23:42.172Z,53.91
2022-08-28T04:24:42.170Z,53.81
2022-08-28T04:25:42.177Z,52.52
2022-08-28T04:26:42.150Z,52.31
2022-08-28T04:27:42.149Z,50.75
2022-08-28T04:28:42.138Z,52.29
2022-08-28T04:29:42.122Z,54.77
2022-08-28T04:30:42.116Z,54.27
2022-08-28T04:31:42.150Z,52.29
2022-08-28T04:32:42.106Z,53.21
2022-08-28T04:33:42.081Z,52.96
2022-08-28T04:34:42.077Z,52.37
2022-08-28T04:35:42.079Z,53.99
2022-08-28T04:36:42.074Z,54.63
2022-08-28T04:37:42.049Z,54.57
2022-08-28T04:38:44.113Z,54.74
2022-08-28T04:39:42.054Z,53.75
2022-08-28T04:40:42.053Z,52.79
2022-08-28T04:41:42.022Z,55.96
2022-08-28T04:42:42.020Z,53.77
2022-08-28T04:43:42.002Z,56.22
2022-08-28T04:44:42.017Z,56.26
2022-08-28T04:45:42.027Z,54.14
2022-08-28T04:46:41.977Z,53.66
2022-08-28T04:47:41.978Z,54.68
2022-08-28T04:48:41.966Z,53.41
2022-08-28T04:49:41.946Z,51.86
2022-08-28T04:50:41.970Z,54.56
2022-08-28T04:51:42.332Z,53.80
2022-08-28T04:52:41.921Z,53.23
2022-08-28T04:53:41.910Z,53.51
2022-08-28T04:54:41.909Z,51.95
2022-08-28T04:55:53.589Z,52.66
2022-08-28T04:56:42.890Z,53.20
2022-08-28T04:57:41.882Z,53.64
2022-08-28T04:58:41.876Z,53.07
2022-08-28T04:59:41.849Z,53.18
2022-08-28T05:00:41.876Z,53.40
2022-08-28T05:01:41.858Z,52.79
2022-08-28T05:02:41.894Z,53.63
2022-08-28T05:03:41.820Z,52.62
2022-08-28T05:04:41.814Z,52.76
2022-08-28T05:05:41.814Z,52.31
2022-08-28T05:06:41.820Z,51.39
2022-08-28T05:07:41.791Z,53.69
2022-08-28T05:08:41.787Z,53.46
2022-08-28T05:09:41.768Z,51.75
2022-08-28T05:10:41.787Z,51.79
2022-08-28T05:11:41.751Z,52.09
2022-08-28T05:12:41.752Z,53.63
2022-08-28T05:13:41.759Z,54.49
2022-08-28T05:14:41.737Z,52.79
2022-08-28T05:15:41.725Z,53.60
2022-08-28T05:16:41.760Z,52.59
2022-08-28T05:17:41.697Z,52.13
2022-08-28T05:18:41.695Z,52.70
2022-08-28T05:19:41.689Z,51.63
2022-08-28T05:20:41.669Z,51.98
2022-08-28T05:21:41.658Z,52.59
2022-08-28T05:22:41.678Z,52.48
2022-08-28T05:23:41.651Z,52.06
2022-08-28T05:24:41.654Z,52.50
2022-08-28T05:25:41.640Z,52.38
2022-08-28T05:26:41.627Z,51.78
2022-08-28T05:27:41.636Z,53.79
2022-08-28T05:28:41.614Z,52.51
2022-08-28T05:29:41.602Z,50.53
2022-08-28T05:30:41.627Z,50.89
2022-08-28T05:31:41.668Z,53.35
2022-08-28T05:32:41.579Z,53.24
2022-08-28T05:33:41.586Z,52.30
2022-08-28T05:34:41.561Z,52.36
2022-08-28T05:35:41.559Z,53.14
2022-08-28T05:36:41.549Z,52.36
2022-08-28T05:37:41.582Z,53.20
2022-08-28T05:38:41.535Z,52.62
2022-08-28T05:39:41.520Z,52.95
2022-08-28T05:40:41.529Z,51.86
2022-08-28T05:41:41.519Z,53.05
2022-08-28T05:42:41.499Z,52.94
2022-08-28T05:43:41.480Z,53.88
2022-08-28T05:44:41.503Z,55.06
2022-08-28T05:45:41.496Z,53.53
2022-08-28T05:46:41.496Z,53.79
2022-08-28T05:47:41.448Z,53.31
2022-08-28T05:48:41.442Z,53.83
2022-08-28T05:49:41.433Z,52.65
2022-08-28T05:50:47.215Z,52.78
2022-08-28T05:51:41.422Z,52.74
2022-08-28T05:52:41.440Z,54.10
2022-08-28T05:53:41.401Z,53.71
2022-08-28T05:54:41.398Z,54.26
2022-08-28T05:55:41.382Z,53.55
2022-08-28T05:56:41.391Z,53.25
2022-08-28T05:57:41.365Z,54.68
2022-08-28T05:58:41.381Z,53.45
2022-08-28T05:59:41.349Z,53.36
2022-08-28T06:00:41.362Z,53.83
2022-08-28T06:01:41.463Z,54.92
2022-08-28T06:02:41.331Z,55.01
2022-08-28T06:03:41.392Z,54.86
2022-08-28T06:04:41.347Z,55.26
2022-08-28T06:05:41.299Z,54.80
2022-08-28T06:06:41.314Z,54.56
2022-08-28T06:07:41.280Z,53.35
2022-08-28T06:08:56.360Z,54.26
2022-08-28T06:09:42.291Z,55.15
2022-08-28T06:10:41.263Z,54.99
2022-08-28T06:11:44.811Z,54.65
2022-08-28T06:12:42.256Z,55.17
2022-08-28T06:13:41.241Z,55.30
2022-08-28T06:14:41.248Z,54.83
2022-08-28T06:15:41.220Z,54.69
2022-08-28T06:16:41.227Z,53.69
2022-08-28T06:17:41.245Z,53.43
2022-08-28T06:18:41.212Z,54.96
2022-08-28T06:19:41.801Z,55.26
2022-08-28T06:20:41.194Z,54.29
2022-08-28T06:21:41.177Z,53.92
2022-08-28T06:22:41.177Z,54.06
2022-08-28T06:23:41.193Z,53.83
2022-08-28T06:24:41.159Z,52.57
2022-08-28T06:25:41.167Z,52.21
2022-08-28T06:26:41.145Z,52.89
2022-08-28T06:27:41.132Z,53.51
2022-08-28T06:28:41.127Z,54.15
2022-08-28T06:29:41.142Z,53.37
2022-08-28T06:30:52.748Z,52.60
2022-08-28T06:31:42.173Z,53.60
2022-08-28T06:32:41.112Z,53.03
2022-08-28T06:33:41.085Z,53.05
2022-08-28T06:34:41.079Z,53.47
2022-08-28T06:35:41.073Z,52.63
2022-08-28T06:36:41.069Z,54.33
2022-08-28T06:37:41.077Z,54.53
2022-08-28T06:38:41.052Z,51.92
2022-08-28T06:39:41.042Z,52.36
2022-08-28T06:40:41.060Z,53.32
2022-08-28T06:41:41.103Z,54.91
2022-08-28T06:42:41.022Z,53.89
2022-08-28T06:43:41.027Z,56.87
2022-08-28T06:44:41.024Z,55.26
2022-08-28T06:45:41.077Z,54.02
2022-08-28T06:46:41.004Z,53.78
2022-08-28T06:47:41.009Z,53.07
2022-08-28T06:48:40.983Z,55.61
2022-08-28T06:49:40.974Z,55.42
2022-08-28T06:50:40.970Z,56.61
2022-08-28T06:51:40.958Z,56.17
2022-08-28T06:52:40.945Z,55.72
2022-08-28T06:53:40.963Z,56.46
2022-08-28T06:54:40.965Z,56.19
2022-08-28T06:55:41.934Z,56.14
2022-08-28T06:56:40.921Z,58.79
2022-08-28T06:57:40.908Z,55.56
2022-08-28T06:58:40.906Z,54.79
2022-08-28T06:59:40.918Z,53.63
2022-08-28T07:00:40.920Z,54.65
2022-08-28T07:01:40.957Z,54.72
2022-08-28T07:02:40.959Z,55.38
2022-08-28T07:03:42.545Z,53.94
2022-08-28T07:04:40.859Z,57.84
2022-08-28T07:05:40.854Z,58.54
2022-08-28T07:06:40.899Z,56.05
2022-08-28T07:07:40.841Z,56.10
2022-08-28T07:08:40.846Z,55.94
2022-08-28T07:09:40.830Z,56.21
2022-08-28T07:10:40.826Z,54.86
2022-08-28T07:11:40.812Z,57.01
2022-08-28T07:12:40.825Z,56.37
2022-08-28T07:13:40.798Z,55.63
2022-08-28T07:14:40.788Z,55.38
2022-08-28T07:15:41.905Z,56.44
2022-08-28T07:16:40.805Z,56.09
2022-08-28T07:17:40.766Z,55.26
2022-08-28T07:18:40.759Z,55.30
2022-08-28T07:19:40.754Z,55.57
2022-08-28T07:20:40.746Z,55.70
2022-08-28T07:21:40.748Z,54.53
2022-08-28T07:22:40.755Z,55.01
2022-08-28T07:23:40.719Z,54.89
2022-08-28T07:24:40.722Z,54.84
2022-08-28T07:25:40.706Z,55.00
2022-08-28T07:26:40.702Z,54.89
2022-08-28T07:27:40.718Z,55.80
2022-08-28T07:28:40.683Z,55.30
2022-08-28T07:29:40.684Z,54.63
2022-08-28T07:30:40.751Z,55.22
2022-08-28T07:31:40.693Z,55.39
2022-08-28T07:32:40.667Z,55.26
2022-08-28T07:33:40.664Z,54.34
2022-08-28T07:34:40.657Z,55.16
2022-08-28T07:35:40.631Z,56.31
2022-08-28T07:36:40.633Z,54.26
2022-08-28T07:37:40.861Z,54.68
2022-08-28T07:38:40.622Z,55.60
2022-08-28T07:39:40.622Z,56.27
2022-08-28T07:40:40.606Z,55.18
2022-08-28T07:41:40.600Z,56.58
2022-08-28T07:42:40.579Z,56.69
2022-08-28T07:43:40.576Z,57.29
2022-08-28T07:44:40.587Z,56.40
2022-08-28T07:45:40.629Z,55.48
2022-08-28T07:46:40.570Z,56.21
2022-08-28T07:47:40.569Z,55.81
2022-08-28T07:48:40.544Z,56.16
2022-08-28T07:49:40.569Z,57.13
2022-08-28T07:50:41.429Z,56.14
2022-08-28T07:51:40.518Z,56.80
2022-08-28T07:52:40.529Z,56.71
2022-08-28T07:53:40.505Z,56.35
2022-08-28T07:54:40.533Z,56.73
2022-08-28T07:55:40.492Z,56.80
2022-08-28T07:56:40.480Z,56.43
2022-08-28T07:57:40.469Z,55.28
2022-08-28T07:58:40.483Z,56.79
2022-08-28T07:59:40.460Z,56.62
2022-08-28T08:00:40.461Z,56.65
2022-08-28T08:01:40.504Z,56.64
2022-08-28T08:02:40.464Z,57.01
2022-08-28T08:03:40.481Z,56.53
2022-08-28T08:04:40.428Z,57.16
2022-08-28T08:05:40.420Z,58.09
2022-08-28T08:06:40.410Z,54.61
2022-08-28T08:07:41.872Z,55.32
2022-08-28T08:08:40.425Z,55.82
2022-08-28T08:09:40.395Z,56.35
2022-08-28T08:10:40.388Z,56.26
2022-08-28T08:11:40.374Z,57.43
2022-08-28T08:12:40.369Z,57.20
2022-08-28T08:13:40.363Z,56.36
2022-08-28T08:14:40.371Z,55.40
2022-08-28T08:15:40.346Z,56.03
2022-08-28T08:16:40.338Z,56.34
2022-08-28T08:17:40.326Z,55.60
2022-08-28T08:18:40.326Z,56.15
2022-08-28T08:19:40.324Z,55.49
2022-08-28T08:20:40.327Z,55.07
2022-08-28T08:21:40.304Z,55.79
2022-08-28T08:22:40.293Z,56.99
2022-08-28T08:23:40.285Z,56.85
2022-08-28T08:24:40.289Z,57.89
2022-08-28T08:25:40.271Z,56.96
2022-08-28T08:26:40.279Z,57.24
2022-08-28T08:27:43.064Z,57.41
2022-08-28T08:28:40.243Z,55.56
2022-08-28T08:29:40.237Z,56.74
2022-08-28T08:30:40.227Z,56.47
2022-08-28T08:31:40.925Z,55.40
2022-08-28T08:32:40.250Z,55.54
2022-08-28T08:33:40.211Z,55.69
2022-08-28T08:34:40.211Z,55.77
2022-08-28T08:35:40.200Z,56.64
2022-08-28T08:36:40.193Z,53.89
2022-08-28T08:37:40.218Z,53.98
2022-08-28T08:38:40.175Z,54.95
2022-08-28T08:39:40.174Z,55.91
2022-08-28T08:40:40.223Z,55.86
2022-08-28T08:41:40.152Z,55.34
2022-08-28T08:42:40.151Z,54.77
2022-08-28T08:43:40.161Z,55.43
2022-08-28T08:44:40.132Z,55.91
2022-08-28T08:45:40.120Z,55.90
2022-08-28T08:46:40.157Z,56.27
2022-08-28T08:47:40.105Z,55.36
2022-08-28T08:48:40.098Z,54.92
2022-08-28T08:49:40.123Z,55.84
2022-08-28T08:50:40.087Z,55.10
2022-08-28T08:51:40.073Z,55.84
2022-08-28T08:52:40.077Z,54.00
2022-08-28T08:53:40.063Z,55.81
2022-08-28T08:54:40.069Z,55.95
2022-08-28T08:55:40.077Z,56.46
2022-08-28T08:56:40.048Z,55.89
2022-08-28T08:57:40.036Z,54.50
2022-08-28T08:58:40.056Z,53.47
2022-08-28T08:59:40.020Z,54.10
2022-08-28T09:00:40.013Z,55.26
2022-08-28T09:01:40.085Z,55.27
2022-08-28T09:02:39.999Z,55.50
2022-08-28T09:03:40.400Z,54.66
2022-08-28T09:04:40.008Z,56.26
2022-08-28T09:05:39.969Z,55.05
2022-08-28T09:06:39.978Z,55.85
2022-08-28T09:07:39.956Z,56.20
2022-08-28T09:08:39.965Z,54.62
2022-08-28T09:09:39.951Z,54.95
2022-08-28T09:10:39.975Z,55.98
2022-08-28T09:11:39.944Z,55.62
2022-08-28T09:12:39.925Z,53.82
2022-08-28T09:13:39.913Z,53.70
2022-08-28T09:14:39.956Z,54.68
2022-08-28T09:15:39.925Z,52.97
2022-08-28T09:16:39.897Z,53.46
2022-08-28T09:17:39.886Z,54.93
2022-08-28T09:18:39.892Z,54.57
2022-08-28T09:19:39.890Z,54.96
2022-08-28T09:20:39.875Z,55.12
2022-08-28T09:21:39.880Z,54.64
2022-08-28T09:22:39.864Z,55.64
2022-08-28T09:23:39.850Z,54.58
2022-08-28T09:24:39.872Z,55.59
2022-08-28T09:25:39.835Z,55.88
2022-08-28T09:26:39.835Z,54.72
2022-08-28T09:27:39.861Z,55.92
2022-08-28T09:28:39.831Z,55.48
2022-08-28T09:29:39.808Z,55.43
2022-08-28T09:30:39.843Z,54.27
2022-08-28T09:31:39.795Z,52.93
2022-08-28T09:32:39.796Z,55.19
2022-08-28T09:33:40.149Z,55.73
2022-08-28T09:34:39.778Z,55.26
2022-08-28T09:35:39.774Z,55.62
2022-08-28T09:36:39.767Z,53.45
2022-08-28T09:37:39.748Z,53.98
2022-08-28T09:38:39.753Z,55.20
2022-08-28T09:39:39.766Z,55.29
2022-08-28T09:40:39.814Z,55.50
2022-08-28T09:41:39.726Z,55.02
2022-08-28T09:42:39.712Z,54.75
2022-08-28T09:43:39.730Z,53.96
2022-08-28T09:44:39.695Z,55.05
2022-08-28T09:45:39.695Z,57.17
2022-08-28T09:46:39.716Z,56.12
2022-08-28T09:47:40.588Z,55.00
2022-08-28T09:48:40.702Z,55.77
2022-08-28T09:49:39.662Z,55.09
2022-08-28T09:50:39.655Z,55.74
2022-08-28T09:51:39.640Z,55.26
2022-08-28T09:52:39.641Z,55.56
2022-08-28T09:53:39.631Z,54.91
2022-08-28T09:54:39.646Z,56.83
2022-08-28T09:55:39.626Z,55.97
2022-08-28T09:56:39.631Z,56.27
2022-08-28T09:57:39.644Z,56.71
2022-08-28T09:58:39.605Z,56.00
2022-08-28T09:59:39.593Z,55.71
2022-08-28T10:00:39.594Z,56.79
2022-08-28T10:01:39.616Z,54.70
2022-08-28T10:02:39.587Z,55.43
2022-08-28T10:03:39.600Z,55.53
2022-08-28T10:04:39.622Z,56.50
2022-08-28T10:05:39.548Z,56.78
2022-08-28T10:06:39.540Z,57.77
2022-08-28T10:07:39.555Z,57.54
2022-08-28T10:08:39.525Z,57.13
2022-08-28T10:09:39.520Z,56.06
2022-08-28T10:10:40.530Z,56.36
2022-08-28T10:11:41.747Z,56.82
2022-08-28T10:12:39.549Z,56.01
2022-08-28T10:13:39.493Z,56.25
2022-08-28T10:14:39.499Z,56.23
2022-08-28T10:15:43.107Z,57.08
2022-08-28T10:16:39.474Z,54.51
2022-08-28T10:17:39.477Z,55.00
2022-08-28T10:18:39.487Z,54.83
2022-08-28T10:19:39.460Z,55.96
2022-08-28T10:20:39.462Z,57.15
2022-08-28T10:21:39.472Z,56.45
2022-08-28T10:22:39.485Z,56.26
2022-08-28T10:23:39.447Z,56.67
2022-08-28T10:24:39.419Z,55.59
2022-08-28T10:25:40.084Z,55.53
2022-08-28T10:26:39.440Z,55.14
2022-08-28T10:27:39.400Z,55.27
2022-08-28T10:28:39.394Z,56.15
2022-08-28T10:29:39.386Z,56.31
2022-08-28T10:30:39.422Z,55.27
2022-08-28T10:31:39.400Z,54.44
2022-08-28T10:32:39.430Z,55.45
2022-08-28T10:33:39.361Z,55.05
2022-08-28T10:34:39.357Z,55.10
2022-08-28T10:35:39.355Z,53.08
2022-08-28T10:36:39.347Z,54.49
2022-08-28T10:37:39.420Z,55.55
2022-08-28T10:38:39.349Z,55.80
2022-08-28T10:39:39.321Z,54.93
2022-08-28T10:40:39.371Z,54.41
2022-08-28T10:41:39.305Z,54.60
2022-08-28T10:42:39.380Z,55.81
2022-08-28T10:43:39.317Z,55.94
2022-08-28T10:44:39.291Z,55.97
2022-08-28T10:45:39.299Z,55.29
2022-08-28T10:46:39.328Z,54.25
2022-08-28T10:47:39.269Z,55.80
2022-08-28T10:48:39.277Z,53.89
2022-08-28T10:49:39.284Z,53.92
2022-08-28T10:50:39.250Z,55.63
2022-08-28T10:51:43.580Z,56.58
2022-08-28T10:52:39.241Z,56.06
2022-08-28T10:53:39.254Z,56.61
2022-08-28T10:54:39.215Z,57.00
2022-08-28T10:55:39.222Z,55.80
2022-08-28T10:56:39.230Z,55.13
2022-08-28T10:57:40.070Z,55.20
2022-08-28T10:58:39.194Z,55.74
2022-08-28T10:59:42.065Z,55.68
2022-08-28T11:00:39.190Z,56.38
2022-08-28T11:01:39.258Z,56.58
2022-08-28T11:02:39.328Z,57.14
2022-08-28T11:03:39.161Z,57.26
2022-08-28T11:04:39.162Z,55.90
2022-08-28T11:05:39.150Z,55.40
2022-08-28T11:06:39.157Z,57.06
2022-08-28T11:07:39.147Z,57.03
2022-08-28T11:08:39.140Z,53.85
2022-08-28T11:09:39.120Z,55.90
2022-08-28T11:10:39.117Z,55.67
2022-08-28T11:11:39.108Z,54.18
2022-08-28T11:12:39.122Z,55.41
2022-08-28T11:13:39.114Z,55.28
2022-08-28T11:14:42.790Z,55.92
2022-08-28T11:15:40.085Z,53.95
2022-08-28T11:16:40.374Z,53.93
2022-08-28T11:17:39.093Z,57.25
2022-08-28T11:18:39.071Z,56.89
2022-08-28T11:19:43.856Z,55.14
2022-08-28T11:20:40.067Z,54.84
2022-08-28T11:21:39.038Z,55.82
2022-08-28T11:22:39.036Z,54.01
2022-08-28T11:23:39.060Z,54.42
2022-08-28T11:24:39.017Z,55.31
2022-08-28T11:25:39.017Z,55.00
2022-08-28T11:26:39.051Z,55.76
2022-08-28T11:27:39.013Z,56.02
2022-08-28T11:28:38.994Z,54.69
2022-08-28T11:29:39.020Z,54.50
2022-08-28T11:30:39.063Z,54.40
2022-08-28T11:31:39.020Z,55.18
2022-08-28T11:32:38.971Z,55.47
2022-08-28T11:33:39.966Z,56.32
2022-08-28T11:34:38.980Z,58.47
2022-08-28T11:35:38.941Z,57.40
2022-08-28T11:36:38.985Z,56.24
2022-08-28T11:37:38.957Z,56.68
2022-08-28T11:38:38.958Z,56.03
2022-08-28T11:39:38.938Z,57.28
2022-08-28T11:40:39.056Z,56.65
2022-08-28T11:41:38.933Z,55.57
2022-08-28T11:42:38.901Z,55.24
2022-08-28T11:43:38.889Z,54.61
2022-08-28T11:44:38.879Z,55.53
2022-08-28T11:45:38.964Z,55.19
2022-08-28T11:46:38.938Z,55.92
2022-08-28T11:47:38.872Z,56.13
2022-08-28T11:48:38.871Z,56.92
2022-08-28T11:49:38.852Z,56.61
2022-08-28T11:50:38.876Z,55.29
2022-08-28T11:51:38.838Z,56.66
2022-08-28T11:52:38.876Z,56.66
2022-08-28T11:53:38.831Z,56.30
2022-08-28T11:54:38.842Z,56.85
2022-08-28T11:55:38.821Z,57.10
2022-08-28T11:56:38.818Z,57.10
2022-08-28T11:57:38.822Z,56.92
2022-08-28T11:58:38.800Z,57.18
2022-08-28T11:59:38.779Z,58.18
2022-08-28T12:00:38.785Z,57.14
2022-08-28T12:01:38.792Z,56.25
2022-08-28T12:02:38.822Z,57.35
2022-08-28T12:03:38.774Z,56.82
2022-08-28T12:04:38.821Z,57.26
2022-08-28T12:05:38.750Z,56.99
2022-08-28T12:06:38.762Z,56.91
2022-08-28T12:07:38.730Z,56.65
2022-08-28T12:08:38.743Z,56.43
2022-08-28T12:09:38.718Z,56.24
2022-08-28T12:10:38.717Z,57.32
2022-08-28T12:11:38.710Z,58.03
2022-08-28T12:12:38.705Z,58.93
2022-08-28T12:13:38.691Z,57.92
2022-08-28T12:14:38.726Z,57.30
2022-08-28T12:15:38.711Z,57.28
2022-08-28T12:16:38.681Z,55.71
2022-08-28T12:17:38.669Z,55.75
2022-08-28T12:18:38.681Z,56.02
2022-08-28T12:19:41.146Z,57.23
2022-08-28T12:20:38.656Z,56.20
2022-08-28T12:21:38.665Z,56.35
2022-08-28T12:22:38.632Z,55.79
2022-08-28T12:23:38.647Z,57.34
2022-08-28T12:24:38.612Z,56.14
2022-08-28T12:25:38.621Z,56.59
2022-08-28T12:26:38.627Z,56.94
2022-08-28T12:27:38.596Z,55.44
2022-08-28T12:28:38.587Z,54.59
2022-08-28T12:29:38.582Z,55.72
2022-08-28T12:30:38.631Z,55.14
2022-08-28T12:31:38.555Z,56.26
2022-08-28T12:32:38.577Z,56.50
2022-08-28T12:33:38.549Z,55.61
2022-08-28T12:34:38.541Z,55.83
2022-08-28T12:35:38.529Z,57.27
2022-08-28T12:36:38.533Z,55.69
2022-08-28T12:37:50.806Z,55.23
2022-08-28T12:38:39.526Z,56.28
2022-08-28T12:39:38.495Z,56.01
2022-08-28T12:40:38.579Z,57.33
2022-08-28T12:41:38.479Z,58.00
2022-08-28T12:42:38.510Z,58.39
2022-08-28T12:43:41.698Z,57.60
2022-08-28T12:44:38.466Z,57.62
2022-08-28T12:45:38.503Z,56.71
2022-08-28T12:46:38.531Z,57.87
2022-08-28T12:47:38.444Z,56.90
2022-08-28T12:48:38.457Z,56.29
2022-08-28T12:49:38.427Z,56.21
2022-08-28T12:50:38.428Z,54.73
2022-08-28T12:51:38.420Z,54.24
2022-08-28T12:52:38.418Z,55.10